Terminal Aerodrome Forecast
Issued by NWS

Home | Current Version | Previous Version | Text Only | Print | Product List | Glossary Off
Versions: 1 2 3 4 5 6 7 8 9 10 11 12 13 14 15

000
FTUS43 KGRB 040500
TAFMTW
TAF
KMTW 040528Z 0406/0506 35007KT P6SM -SHRA SCT030 BKN080
      TEMPO 0406/0409 4SM -TSRA BKN030CB
     FM041000 32006KT P6SM SCT070 BKN090
     FM041500 04012KT P6SM SCT250
     FM042100 06008KT P6SM SCT250=

USA.gov is the U.S. government's official web portal to all federal, state and local government web resources and services.